Time;durP1;ratioP1;P1;durP2;ratioP2;P2;SDS_P1;SDS_P2;PMS_P1;PMS_P2;Temp;Humidity;BMP_temperature;BMP_pressure;BME280_temperature;BME280_humidity;BME280_pressure;Samples;Min_cycle;Max_cycle;Signal;HPM_P1;HPM_P2
2022/07/22 00:00:45;;;;;;;20.53;18.57;;;17.20;99.90;;;;;;5113051;28;20255;-73
2022/07/22 00:03:13;;;;;;;20.00;18.00;;;17.20;99.90;;;;;;5112787;28;20222;-74
2022/07/22 00:05:42;;;;;;;19.87;17.97;;;17.20;99.90;;;;;;5112425;28;20241;-75
2022/07/22 00:08:12;;;;;;;19.90;18.00;;;17.10;99.90;;;;;;5112759;28;20739;-72
2022/07/22 00:10:40;;;;;;;19.83;17.93;;;17.10;99.90;;;;;;5112796;28;20199;-74
2022/07/22 00:13:08;;;;;;;21.63;19.53;;;17.10;99.90;;;;;;5113208;28;20329;-73
2022/07/22 00:15:36;;;;;;;21.47;19.27;;;17.10;99.90;;;;;;5113167;28;20229;-75
2022/07/22 00:18:05;;;;;;;22.03;19.67;;;17.10;99.90;;;;;;5112343;28;20198;-75
2022/07/22 00:20:33;;;;;;;19.97;17.87;;;17.00;99.90;;;;;;5112258;28;20202;-74
2022/07/22 00:23:02;;;;;;;21.43;19.27;;;17.00;99.90;;;;;;5124479;28;20242;-74
2022/07/22 00:25:32;;;;;;;20.97;18.83;;;17.00;99.90;;;;;;5135926;27;20235;-76
2022/07/22 00:28:01;;;;;;;20.03;18.03;;;17.00;99.90;;;;;;5138472;27;20248;-75
2022/07/22 00:30:29;;;;;;;19.00;17.30;;;17.00;99.90;;;;;;5137888;28;20241;-75
2022/07/22 00:32:57;;;;;;;20.23;18.33;;;16.90;99.90;;;;;;5137925;28;20247;-74
2022/07/22 00:35:26;;;;;;;20.17;18.23;;;16.80;99.90;;;;;;5134586;28;20229;-76
2022/07/22 00:37:54;;;;;;;20.87;18.87;;;16.80;99.90;;;;;;5116589;28;20263;-74
2022/07/22 00:40:26;;;;;;;20.97;18.97;;;16.80;99.90;;;;;;5116330;28;20647;-74
2022/07/22 00:42:56;;;;;;;20.40;18.50;;;16.80;99.90;;;;;;5114982;28;20217;-74
2022/07/22 00:45:24;;;;;;;20.67;18.83;;;16.80;99.90;;;;;;5113971;28;20195;-74
2022/07/22 00:47:55;;;;;;;20.47;18.57;;;16.70;99.90;;;;;;5113810;28;20194;-74
2022/07/22 00:50:24;;;;;;;21.10;19.10;;;16.70;99.90;;;;;;5114161;28;20248;-74
2022/07/22 00:52:56;;;;;;;20.80;18.80;;;16.70;99.90;;;;;;5113399;28;20222;-75
2022/07/22 00:55:27;;;;;;;20.43;18.33;;;16.70;99.90;;;;;;5113174;28;20633;-74
2022/07/22 00:57:56;;;;;;;20.43;18.47;;;16.70;99.90;;;;;;5113732;28;20263;-73
2022/07/22 01:00:25;;;;;;;20.37;18.40;;;16.70;99.90;;;;;;5113498;28;20259;-73
2022/07/22 01:02:53;;;;;;;19.93;17.83;;;16.70;99.90;;;;;;5113632;28;20289;-74
2022/07/22 01:05:24;;;;;;;19.93;17.93;;;16.70;99.90;;;;;;5116095;28;20230;-72
2022/07/22 01:07:53;;;;;;;19.33;17.43;;;16.60;99.90;;;;;;5116588;28;20606;-73
2022/07/22 01:10:21;;;;;;;19.60;17.80;;;16.50;99.90;;;;;;5115813;28;20612;-74
2022/07/22 01:12:50;;;;;;;18.77;17.00;;;16.50;99.90;;;;;;5116092;28;20317;-73
2022/07/22 01:15:19;;;;;;;19.73;17.13;;;16.50;99.90;;;;;;5116013;28;20342;-73
2022/07/22 01:17:47;;;;;;;18.90;17.10;;;16.50;99.90;;;;;;5116370;28;20238;-74
2022/07/22 01:20:19;;;;;;;18.47;16.67;;;16.50;99.90;;;;;;5116157;28;20202;-73
2022/07/22 01:22:47;;;;;;;19.10;17.40;;;16.40;99.90;;;;;;5135923;27;20240;-75
2022/07/22 01:25:15;;;;;;;19.93;18.10;;;16.40;99.90;;;;;;5118415;27;20293;-73
2022/07/22 01:27:43;;;;;;;18.33;16.43;;;16.40;99.90;;;;;;5116257;28;20234;-73
2022/07/22 01:30:13;;;;;;;20.40;18.30;;;16.30;99.90;;;;;;5115636;28;20549;-73
2022/07/22 01:32:41;;;;;;;19.50;17.50;;;16.30;99.90;;;;;;5115377;28;20213;-72
2022/07/22 01:35:09;;;;;;;18.07;16.37;;;16.30;99.90;;;;;;5115646;28;20202;-74
2022/07/22 01:37:42;;;;;;;19.40;17.50;;;16.30;99.90;;;;;;5115775;27;20289;-74
2022/07/22 01:40:11;;;;;;;19.90;18.00;;;16.30;99.90;;;;;;5115087;28;20203;-74
2022/07/22 01:42:39;;;;;;;19.07;17.07;;;16.30;99.90;;;;;;5127654;27;20216;-74
2022/07/22 01:45:10;;;;;;;18.50;16.80;;;16.30;99.90;;;;;;5130834;27;20292;-75
2022/07/22 01:47:38;;;;;;;19.90;17.90;;;16.30;99.90;;;;;;5136147;27;20220;-74
2022/07/22 01:50:09;;;;;;;18.70;16.70;;;16.30;99.90;;;;;;5135748;27;20297;-74
2022/07/22 01:52:39;;;;;;;17.03;15.40;;;16.30;99.90;;;;;;5123917;27;20285;-73
2022/07/22 01:55:12;;;;;;;18.33;16.60;;;16.30;99.90;;;;;;5115966;28;20595;-76
2022/07/22 01:57:40;;;;;;;18.10;16.20;;;16.20;99.90;;;;;;5115614;28;20210;-74
2022/07/22 02:00:10;;;;;;;18.90;17.03;;;16.20;99.90;;;;;;5115182;28;20345;-75
2022/07/22 02:02:40;;;;;;;19.57;17.00;;;16.10;99.90;;;;;;5118545;27;20227;-73
2022/07/22 02:05:10;;;;;;;18.43;16.53;;;16.10;99.90;;;;;;5117657;27;20258;-76
2022/07/22 02:07:40;;;;;;;19.10;17.20;;;16.10;99.90;;;;;;5115046;28;20353;-78
2022/07/22 02:10:09;;;;;;;17.67;16.07;;;16.10;99.90;;;;;;5114651;28;20613;-80
2022/07/22 02:12:38;;;;;;;18.77;16.97;;;16.10;99.90;;;;;;5114680;28;20271;-77
2022/07/22 02:15:10;;;;;;;18.57;16.77;;;16.10;99.90;;;;;;5114773;27;20318;-81
2022/07/22 02:17:38;;;;;;;17.93;16.23;;;16.00;99.90;;;;;;5114718;28;20210;-78
2022/07/22 02:20:10;;;;;;;17.60;15.90;;;16.00;99.90;;;;;;5122582;27;20201;-80
2022/07/22 02:22:40;;;;;;;18.93;17.23;;;16.00;99.90;;;;;;5132237;27;20250;-80
2022/07/22 02:25:09;;;;;;;18.13;16.33;;;15.90;99.90;;;;;;5114172;28;20285;-78
2022/07/22 02:27:37;;;;;;;18.63;16.83;;;15.90;99.90;;;;;;5114915;28;20244;-78
2022/07/22 02:30:07;;;;;;;17.47;15.87;;;15.90;99.90;;;;;;5113947;28;20245;-78
2022/07/22 02:32:35;;;;;;;18.23;16.53;;;15.90;99.90;;;;;;5114231;28;20210;-76
2022/07/22 02:35:06;;;;;;;18.50;16.57;;;15.90;99.90;;;;;;5114366;28;20295;-77
2022/07/22 02:37:34;;;;;;;18.63;16.80;;;15.90;99.90;;;;;;5114911;28;20248;-80
2022/07/22 02:40:05;;;;;;;19.00;17.20;;;15.80;99.90;;;;;;5114094;28;20209;-77
2022/07/22 02:42:33;;;;;;;18.07;16.47;;;15.80;99.90;;;;;;5114362;28;20226;-80
2022/07/22 02:45:02;;;;;;;18.63;16.93;;;15.70;99.90;;;;;;5113989;28;20299;-76
2022/07/22 02:47:30;;;;;;;19.63;17.63;;;15.70;99.90;;;;;;5114131;28;20202;-77
2022/07/22 02:49:58;;;;;;;18.60;16.53;;;15.80;99.90;;;;;;5113533;28;20293;-77
2022/07/22 02:52:27;;;;;;;18.30;16.57;;;15.80;99.90;;;;;;5114151;28;20300;-75
2022/07/22 02:54:55;;;;;;;20.20;18.23;;;15.80;99.90;;;;;;5114005;28;20294;-77
2022/07/22 02:57:24;;;;;;;18.03;16.40;;;15.70;99.90;;;;;;5113902;28;20260;-79
2022/07/22 02:59:56;;;;;;;17.60;15.90;;;15.70;99.90;;;;;;5114135;27;20231;-77
2022/07/22 03:02:26;;;;;;;18.73;16.93;;;15.70;99.90;;;;;;5113834;28;20221;-77
2022/07/22 03:04:54;;;;;;;18.20;16.50;;;15.60;99.90;;;;;;5113488;28;20222;-79
2022/07/22 03:07:22;;;;;;;18.33;16.63;;;15.60;99.90;;;;;;5114064;28;20218;-79
2022/07/22 03:09:51;;;;;;;20.30;18.10;;;15.60;99.90;;;;;;5113728;28;20202;-78
2022/07/22 03:12:28;;;;;;;19.17;17.23;;;15.70;99.90;;;;;;5113793;27;20600;-76
2022/07/22 03:14:56;;;;;;;19.97;17.97;;;15.70;99.90;;;;;;5113364;28;20313;-77
2022/07/22 03:17:24;;;;;;;20.27;18.27;;;15.70;99.90;;;;;;5113094;28;20206;-77
2022/07/22 03:19:52;;;;;;;20.23;18.03;;;15.70;99.90;;;;;;5132210;27;20728;-76
2022/07/22 03:22:23;;;;;;;19.07;17.13;;;15.60;99.90;;;;;;5133748;27;20300;-79
2022/07/22 03:24:51;;;;;;;20.13;18.23;;;15.60;99.90;;;;;;5122132;27;20195;-76
2022/07/22 03:27:23;;;;;;;19.27;17.30;;;15.60;99.90;;;;;;5114083;27;20227;-75
2022/07/22 03:29:52;;;;;;;20.40;18.30;;;15.50;99.90;;;;;;5113097;28;20217;-79
2022/07/22 03:32:21;;;;;;;20.40;18.30;;;15.50;99.90;;;;;;5119145;27;20687;-80
2022/07/22 03:34:49;;;;;;;20.17;18.07;;;15.40;99.90;;;;;;5133675;27;20257;-78
2022/07/22 03:37:17;;;;;;;20.13;18.10;;;15.40;99.90;;;;;;5119011;27;20664;-75
2022/07/22 03:39:45;;;;;;;20.77;18.67;;;15.40;99.90;;;;;;5112957;28;20676;-77
2022/07/22 03:42:16;;;;;;;20.67;18.57;;;15.40;99.90;;;;;;5113003;28;20213;-79
2022/07/22 03:44:46;;;;;;;21.47;19.47;;;15.40;99.90;;;;;;5113487;28;20266;-79
2022/07/22 03:47:20;;;;;;;20.80;18.80;;;15.50;99.90;;;;;;5113192;28;20250;-78
2022/07/22 03:49:48;;;;;;;20.97;18.80;;;15.60;99.90;;;;;;5129138;27;20191;-77
2022/07/22 03:52:23;;;;;;;20.77;18.63;;;15.60;99.90;;;;;;5112894;28;20280;-77
2022/07/22 03:54:51;;;;;;;22.43;20.13;;;15.50;99.90;;;;;;5112673;28;20279;-77
2022/07/22 03:57:20;;;;;;;21.13;19.13;;;15.60;99.90;;;;;;5126529;27;20208;-80
2022/07/22 03:59:48;;;;;;;22.90;20.43;;;15.50;99.90;;;;;;5132069;27;20210;-78
2022/07/22 04:02:19;;;;;;;21.77;19.77;;;15.60;99.90;;;;;;5132584;27;20229;-79
2022/07/22 04:04:49;;;;;;;22.33;19.93;;;15.70;99.90;;;;;;5133515;27;20737;-78
2022/07/22 04:07:17;;;;;;;24.20;20.30;;;15.70;99.90;;;;;;5133484;27;20280;-74
2022/07/22 04:09:45;;;;;;;21.73;19.63;;;15.70;99.90;;;;;;5133365;27;20233;-76
2022/07/22 04:12:14;;;;;;;20.90;18.90;;;15.70;99.90;;;;;;5126831;27;20307;-77
2022/07/22 04:14:42;;;;;;;22.00;19.83;;;15.70;99.90;;;;;;5112621;28;20287;-75
2022/07/22 04:17:14;;;;;;;23.10;20.70;;;15.70;99.90;;;;;;5119965;27;20206;-77
2022/07/22 04:19:43;;;;;;;22.20;20.17;;;15.70;99.90;;;;;;5115473;28;20222;-78
2022/07/22 04:22:13;;;;;;;23.90;21.40;;;15.70;99.90;;;;;;5128701;27;20602;-78
2022/07/22 04:24:41;;;;;;;22.60;20.40;;;15.70;99.90;;;;;;5120708;27;20396;-78
2022/07/22 04:27:10;;;;;;;21.53;19.40;;;15.70;99.90;;;;;;5128804;27;20201;-79
2022/07/22 04:29:38;;;;;;;23.27;20.87;;;15.70;99.90;;;;;;5116827;28;20282;-78
2022/07/22 04:32:06;;;;;;;23.73;19.87;;;15.70;99.90;;;;;;5117266;28;20249;-78
2022/07/22 04:34:35;;;;;;;22.23;20.03;;;15.70;99.90;;;;;;5122373;28;20233;-80
2022/07/22 04:37:03;;;;;;;21.00;18.90;;;15.80;99.90;;;;;;5132073;27;20578;-77
2022/07/22 04:39:33;;;;;;;20.47;18.37;;;15.80;99.90;;;;;;5136523;27;20723;-80
2022/07/22 04:42:01;;;;;;;21.17;19.07;;;15.80;99.90;;;;;;5137053;27;20205;-77
2022/07/22 04:44:29;;;;;;;22.27;18.53;;;15.80;99.90;;;;;;5137421;27;20250;-78
2022/07/22 04:46:58;;;;;;;21.83;18.73;;;15.90;99.90;;;;;;5129150;27;20285;-78
2022/07/22 04:49:33;;;;;;;21.50;19.27;;;15.90;99.90;;;;;;5131524;27;20204;-79
2022/07/22 04:52:01;;;;;;;24.00;20.40;;;16.00;99.90;;;;;;5136596;27;20288;-76
2022/07/22 04:54:29;;;;;;;22.10;20.00;;;16.00;99.90;;;;;;5136455;27;20251;-80
2022/07/22 04:57:00;;;;;;;22.50;20.23;;;16.10;99.90;;;;;;5136052;27;20670;-80
2022/07/22 04:59:30;;;;;;;28.33;20.63;;;16.20;99.90;;;;;;5132212;27;20204;-75
2022/07/22 05:01:58;;;;;;;22.27;19.87;;;16.30;99.90;;;;;;5114245;28;20289;-80
2022/07/22 05:04:26;;;;;;;22.87;20.57;;;16.30;99.90;;;;;;5113705;28;20675;-76
2022/07/22 05:06:54;;;;;;;22.10;19.90;;;16.40;99.90;;;;;;5115263;28;20197;-78
2022/07/22 05:09:22;;;;;;;21.40;19.30;;;16.50;99.90;;;;;;5115127;28;20294;-80
2022/07/22 05:11:51;;;;;;;21.27;19.17;;;16.50;99.90;;;;;;5115184;28;20202;-78
2022/07/22 05:14:21;;;;;;;20.93;18.80;;;16.60;99.90;;;;;;5115586;28;20259;-79
2022/07/22 05:16:49;;;;;;;21.40;19.20;;;16.60;99.90;;;;;;5123330;27;20201;-75
2022/07/22 05:19:17;;;;;;;21.73;19.43;;;16.70;99.90;;;;;;5123915;27;20202;-76
2022/07/22 05:21:45;;;;;;;22.03;19.73;;;16.80;99.90;;;;;;5124013;27;20199;-76
2022/07/22 05:24:14;;;;;;;21.60;19.50;;;16.90;99.90;;;;;;5123170;27;20301;-79
2022/07/22 05:26:42;;;;;;;20.97;18.77;;;17.00;99.90;;;;;;5124990;27;20197;-78
2022/07/22 05:29:11;;;;;;;20.37;18.20;;;17.10;99.90;;;;;;5131190;27;20701;-78
2022/07/22 05:31:40;;;;;;;22.23;19.97;;;17.20;99.90;;;;;;5122160;27;20257;-81
2022/07/22 05:34:08;;;;;;;21.27;18.40;;;17.20;99.90;;;;;;5115779;28;20263;-75
2022/07/22 05:36:37;;;;;;;20.33;18.33;;;17.30;99.90;;;;;;5116516;28;20222;-74
2022/07/22 05:39:05;;;;;;;22.17;17.40;;;17.40;99.90;;;;;;5115058;28;20289;-77
2022/07/22 05:41:33;;;;;;;19.27;17.37;;;17.50;99.90;;;;;;5118299;28;20214;-77
2022/07/22 05:44:02;;;;;;;19.40;17.40;;;17.60;99.90;;;;;;5119446;28;20244;-76
2022/07/22 05:46:30;;;;;;;18.40;16.50;;;17.70;99.90;;;;;;5118893;28;20282;-74
2022/07/22 05:49:00;;;;;;;19.07;17.17;;;17.80;99.90;;;;;;5115308;28;20202;-75
2022/07/22 05:51:28;;;;;;;18.20;16.30;;;17.90;99.90;;;;;;5126241;27;20248;-79
2022/07/22 05:53:56;;;;;;;18.07;15.80;;;18.10;99.90;;;;;;5127248;27;20206;-77
2022/07/22 05:56:24;;;;;;;19.13;14.77;;;18.40;99.90;;;;;;5136285;27;20328;-78
2022/07/22 05:58:52;;;;;;;15.67;14.17;;;18.90;99.90;;;;;;5135929;27;20284;-79
2022/07/22 06:01:22;;;;;;;15.27;13.67;;;19.40;99.90;;;;;;5135286;27;20197;-80
2022/07/22 06:03:50;;;;;;;14.80;12.97;;;20.30;99.90;;;;;;5135680;27;20644;-76
2022/07/22 06:06:19;;;;;;;14.80;12.37;;;21.40;99.90;;;;;;5135879;27;20253;-74
2022/07/22 06:08:47;;;;;;;14.00;12.33;;;22.60;99.90;;;;;;5136192;27;20296;-76
2022/07/22 06:11:21;;;;;;;12.83;11.33;;;23.30;99.90;;;;;;5135967;27;20200;-75
2022/07/22 06:13:49;;;;;;;14.97;10.90;;;24.60;99.90;;;;;;5135681;27;20289;-76
2022/07/22 06:16:17;;;;;;;11.80;10.60;;;25.70;99.90;;;;;;5135462;27;20247;-76
2022/07/22 06:18:46;;;;;;;12.40;11.17;;;27.00;99.90;;;;;;5135830;27;20200;-77
2022/07/22 06:21:14;;;;;;;11.73;10.50;;;27.00;99.90;;;;;;5136543;27;20289;-76
2022/07/22 06:23:45;;;;;;;10.88;9.77;;;28.00;99.90;;;;;;5129465;27;20242;-75
2022/07/22 06:26:13;;;;;;;12.18;10.55;;;28.30;99.90;;;;;;5129049;27;20644;-77
2022/07/22 06:28:41;;;;;;;12.07;10.93;;;28.50;99.90;;;;;;5136407;27;20206;-76
2022/07/22 06:31:09;;;;;;;12.13;9.93;;;28.30;99.90;;;;;;5128925;27;20306;-76
2022/07/22 06:33:38;;;;;;;11.65;10.45;;;28.90;99.90;;;;;;5130872;27;20668;-76
2022/07/22 06:36:07;;;;;;;15.00;10.07;;;29.40;99.90;;;;;;5134378;27;20229;-78
2022/07/22 06:38:35;;;;;;;11.48;10.38;;;29.50;99.90;;;;;;5137219;27;20209;-76
2022/07/22 06:41:10;;;;;;;10.43;9.25;;;28.70;99.90;;;;;;5138654;27;20197;-77
2022/07/22 06:43:41;;;;;;;11.30;9.77;;;29.80;99.90;;;;;;5139111;27;20217;-78
2022/07/22 06:46:09;;;;;;;10.98;9.00;;;29.70;99.90;;;;;;5136966;27;20277;-79
2022/07/22 06:48:37;;;;;;;11.95;9.27;;;30.80;99.90;;;;;;5129600;27;20682;-78
2022/07/22 06:51:06;;;;;;;13.07;9.20;;;30.90;98.80;;;;;;5135989;27;20197;-77
2022/07/22 06:53:34;;;;;;;10.52;8.73;;;30.50;98.50;;;;;;5135819;27;20289;-77
2022/07/22 06:56:03;;;;;;;9.63;8.63;;;31.20;98.20;;;;;;5134759;27;20303;-78
2022/07/22 06:58:36;;;;;;;11.18;8.80;;;32.00;96.30;;;;;;5134543;27;20194;-77
2022/07/22 07:01:05;;;;;;;12.00;8.70;;;32.20;95.40;;;;;;5132249;27;20285;-77
2022/07/22 07:03:33;;;;;;;9.60;8.23;;;31.60;95.50;;;;;;5134831;27;20289;-78
2022/07/22 07:06:04;;;;;;;9.00;8.07;;;32.30;94.90;;;;;;5134357;27;20228;-79
2022/07/22 07:08:32;;;;;;;9.48;7.50;;;33.50;92.50;;;;;;5134159;27;20193;-77
2022/07/22 07:11:00;;;;;;;9.40;7.97;;;33.90;91.00;;;;;;5131666;27;20250;-79
2022/07/22 07:13:31;;;;;;;8.73;7.85;;;34.30;91.70;;;;;;5132962;27;20233;-79
2022/07/22 07:16:01;;;;;;;8.30;7.50;;;34.40;89.30;;;;;;5130758;27;20563;-80
2022/07/22 07:18:29;;;;;;;10.85;7.80;;;35.00;87.20;;;;;;5134711;27;20212;-78
2022/07/22 07:20:57;;;;;;;9.75;7.90;;;34.70;84.50;;;;;;5133822;27;20568;-80
2022/07/22 07:23:25;;;;;;;9.35;7.78;;;34.90;85.30;;;;;;5133835;27;20201;-79
2022/07/22 07:25:56;;;;;;;9.35;7.47;;;35.50;82.50;;;;;;5131767;27;20232;-80
2022/07/22 07:28:25;;;;;;;8.25;7.40;;;35.60;83.50;;;;;;5134135;27;20303;-78
2022/07/22 07:30:53;;;;;;;10.35;7.68;;;35.80;81.00;;;;;;5133657;27;20210;-81
2022/07/22 07:33:23;;;;;;;12.23;8.10;;;36.30;79.50;;;;;;5131800;27;20201;-79
2022/07/22 07:35:51;;;;;;;8.85;7.88;;;35.50;79.00;;;;;;5134253;27;20205;-80
2022/07/22 07:38:20;;;;;;;9.68;7.35;;;35.70;79.20;;;;;;5132160;27;20221;-79
2022/07/22 07:40:49;;;;;;;9.82;7.95;;;35.20;82.50;;;;;;5136767;27;20659;-79
2022/07/22 07:43:17;;;;;;;9.60;6.97;;;34.30;81.40;;;;;;5140189;27;20209;-82
2022/07/22 07:45:46;;;;;;;9.07;6.97;;;35.20;80.50;;;;;;5141962;27;20284;-79
2022/07/22 07:48:15;;;;;;;8.50;7.35;;;35.40;79.90;;;;;;5141422;27;20205;-78
2022/07/22 07:50:45;;;;;;;8.27;6.80;;;35.20;79.70;;;;;;5130986;27;20201;-80
2022/07/22 07:53:15;;;;;;;8.75;6.78;;;35.40;77.60;;;;;;5136748;27;20229;-80
2022/07/22 07:55:47;;;;;;;7.35;6.60;;;36.20;73.30;;;;;;5140200;27;20723;-80
2022/07/22 07:58:15;;;;;;;10.10;7.47;;;35.50;74.60;;;;;;5140792;27;20221;-79
2022/07/22 08:00:43;;;;;;;8.48;6.72;;;34.70;75.70;;;;;;5138096;27;20230;-78
2022/07/22 08:03:12;;;;;;;7.57;6.75;;;35.20;77.20;;;;;;5133108;27;20202;-81
2022/07/22 08:05:41;;;;;;;8.38;6.68;;;35.10;75.70;;;;;;5134127;27;20218;-77
2022/07/22 08:08:16;;;;;;;7.22;6.53;;;35.20;73.80;;;;;;5134404;27;20663;-79
2022/07/22 08:10:46;;;;;;;7.25;6.05;;;36.10;72.70;;;;;;5130837;27;20204;-81
2022/07/22 08:13:26;;;;;;;8.05;6.70;;;36.70;69.60;;;;;;5122643;27;20197;-81
2022/07/22 08:15:55;;;;;;;7.53;6.00;;;36.10;67.90;;;;;;5122559;27;20247;-80
2022/07/22 08:18:23;;;;;;;9.02;6.10;;;35.70;72.70;;;;;;5122941;27;20732;-80
2022/07/22 08:20:51;;;;;;;7.63;6.53;;;35.20;72.40;;;;;;5123031;27;20659;-79
2022/07/22 08:23:22;;;;;;;8.23;6.30;;;35.30;73.90;;;;;;5120284;27;20229;-80
2022/07/22 08:25:51;;;;;;;8.35;7.18;;;36.20;71.20;;;;;;5121730;27;20304;-81
2022/07/22 08:28:19;;;;;;;7.20;6.20;;;35.40;70.30;;;;;;5123370;27;20581;-80
2022/07/22 08:30:47;;;;;;;9.32;6.38;;;35.30;70.20;;;;;;5135094;27;20241;-80
2022/07/22 08:33:16;;;;;;;8.05;6.28;;;35.40;70.30;;;;;;5133427;27;20205;-79
2022/07/22 08:35:47;;;;;;;8.23;6.60;;;35.70;71.40;;;;;;5124470;28;20205;-81
2022/07/22 08:38:15;;;;;;;8.10;6.30;;;35.90;68.30;;;;;;5130877;28;20292;-81
2022/07/22 08:40:45;;;;;;;9.18;6.80;;;36.30;72.70;;;;;;5138073;28;20201;-80
2022/07/22 08:43:13;;;;;;;6.70;6.00;;;36.10;68.60;;;;;;5134642;28;20201;-80
2022/07/22 08:45:41;;;;;;;6.60;5.43;;;37.10;64.90;;;;;;5130967;28;20201;-81
2022/07/22 08:48:13;;;;;;;7.63;5.72;;;36.30;65.50;;;;;;5126842;28;20198;-83
2022/07/22 08:50:41;;;;;;;8.13;5.70;;;35.90;66.30;;;;;;5129518;28;20687;-80
2022/07/22 08:53:12;;;;;;;8.90;6.15;;;36.90;67.10;;;;;;5131734;28;20627;-79
2022/07/22 08:55:46;;;;;;;8.50;5.97;;;36.90;65.10;;;;;;5127632;28;20213;-79
2022/07/22 08:58:14;;;;;;;9.75;6.57;;;36.20;69.00;;;;;;5125975;28;20221;-81
2022/07/22 09:00:43;;;;;;;6.75;5.90;;;36.00;68.20;;;;;;5121172;28;20259;-81
2022/07/22 09:03:22;;;;;;;8.60;6.03;;;36.10;64.70;;;;;;5127860;28;20198;-82
2022/07/22 09:05:52;;;;;;;6.38;5.50;;;35.40;67.60;;;;;;5125323;28;20221;-81
2022/07/22 09:08:20;;;;;;;7.82;6.05;;;35.90;68.10;;;;;;5126497;28;20198;-82
2022/07/22 09:10:53;;;;;;;6.30;5.55;;;36.00;64.70;;;;;;5126134;28;20205;-82
2022/07/22 09:13:21;;;;;;;7.70;5.65;;;36.00;70.20;;;;;;5128841;28;20197;-81
2022/07/22 09:15:52;;;;;;;7.40;5.43;;;36.20;63.80;;;;;;5129840;28;20202;-81
2022/07/22 09:18:21;;;;;;;8.02;6.15;;;36.60;63.90;;;;;;5124066;28;20222;-83
2022/07/22 09:20:49;;;;;;;7.82;5.57;;;37.00;60.70;;;;;;5121860;28;20233;-82
2022/07/22 09:23:22;;;;;;;6.50;5.82;;;36.60;63.10;;;;;;5126815;27;20664;-83
2022/07/22 09:25:51;;;;;;;7.80;6.30;;;36.80;65.30;;;;;;5127994;27;20225;-83
2022/07/22 09:28:23;;;;;;;7.28;6.32;;;36.40;65.30;;;;;;5128405;27;20237;-82
2022/07/22 09:30:56;;;;;;;7.10;6.10;;;37.50;62.70;;;;;;5126422;27;20655;-83
2022/07/22 09:33:27;;;;;;;6.68;5.63;;;36.70;62.70;;;;;;5125503;27;20205;-81
2022/07/22 09:36:04;;;;;;;6.63;5.90;;;37.90;63.00;;;;;;5127937;27;20205;-81
2022/07/22 09:38:34;;;;;;;7.20;5.85;;;38.30;60.90;;;;;;5126644;27;20221;-83
2022/07/22 09:41:05;;;;;;;6.20;5.60;;;37.80;60.00;;;;;;5124357;27;21707;-82
2022/07/22 09:43:37;;;;;;;7.43;5.70;;;37.40;61.60;;;;;;5128263;27;20213;-80
2022/07/22 09:46:05;;;;;;;6.65;5.80;;;37.10;62.10;;;;;;5129008;27;20189;-82
2022/07/22 09:48:34;;;;;;;8.90;5.40;;;37.60;61.30;;;;;;5121909;27;20671;-81
2022/07/22 09:51:02;;;;;;;6.13;5.53;;;37.40;61.10;;;;;;5121527;27;20302;-82
2022/07/22 09:53:32;;;;;;;6.30;4.95;;;38.00;57.90;;;;;;5127955;27;20228;-83
2022/07/22 09:56:02;;;;;;;5.55;5.03;;;38.20;57.00;;;;;;5122494;27;20205;-81
2022/07/22 09:58:32;;;;;;;6.38;5.05;;;38.20;58.60;;;;;;5124952;27;20213;-81
2022/07/22 10:01:03;;;;;;;6.93;5.35;;;38.00;59.80;;;;;;5127744;27;20254;-82
2022/07/22 10:03:36;;;;;;;6.13;5.28;;;38.20;58.50;;;;;;5129369;27;20202;-81
2022/07/22 10:06:06;;;;;;;6.13;5.03;;;37.60;58.10;;;;;;5125031;27;20213;-81
2022/07/22 10:08:35;;;;;;;6.93;5.13;;;37.70;58.40;;;;;;5124396;27;20608;-83
2022/07/22 10:11:05;;;;;;;6.20;4.88;;;38.30;58.50;;;;;;5124732;27;20198;-84
2022/07/22 10:13:38;;;;;;;5.57;5.05;;;38.10;59.50;;;;;;5125424;27;20289;-82
2022/07/22 10:16:07;;;;;;;6.93;5.38;;;38.50;56.20;;;;;;5126267;27;20197;-82
2022/07/22 10:18:35;;;;;;;5.75;5.15;;;38.10;55.00;;;;;;5128548;27;20313;-83
2022/07/22 10:21:06;;;;;;;7.68;4.82;;;37.40;57.30;;;;;;5123690;27;20221;-82
2022/07/22 10:23:35;;;;;;;8.88;4.97;;;38.00;56.80;;;;;;5124512;27;20206;-83
2022/07/22 10:26:05;;;;;;;6.53;4.80;;;38.30;56.80;;;;;;5126204;27;20560;-83
2022/07/22 10:28:36;;;;;;;6.93;4.65;;;37.90;58.00;;;;;;5123954;27;20206;-82
2022/07/22 10:31:23;;;;;;;5.97;4.60;;;38.20;56.30;;;;;;5124613;27;20258;-82
2022/07/22 10:33:54;;;;;;;7.32;4.80;;;38.40;58.60;;;;;;5126298;27;20194;-82
2022/07/22 10:36:32;;;;;;;6.13;5.05;;;39.00;54.90;;;;;;5122959;27;20236;-81
2022/07/22 10:39:07;;;;;;;5.40;4.90;;;38.60;55.80;;;;;;5114296;28;20742;-83
2022/07/22 10:41:37;;;;;;;7.85;5.00;;;39.00;53.80;;;;;;5120565;28;20224;-83
2022/07/22 10:44:08;;;;;;;7.65;5.00;;;38.50;53.50;;;;;;5116653;28;20226;-81
2022/07/22 10:46:50;;;;;;;6.57;5.03;;;38.00;54.50;;;;;;5121623;27;20201;-82
2022/07/22 10:49:21;;;;;;;6.35;5.03;;;36.90;56.00;;;;;;5129794;27;20289;-81
2022/07/22 10:52:16;;;;;;;5.57;4.82;;;36.90;57.40;;;;;;5127409;27;20236;-84
2022/07/22 10:55:33;;;;;;;7.80;4.97;;;37.40;57.30;;;;;;5120006;27;20208;-81
2022/07/22 10:58:22;;;;;;;5.10;4.50;;;37.80;55.90;;;;;;5101627;27;20218;-82
2022/07/22 11:00:51;;;;;;;6.05;4.80;;;38.20;56.50;;;;;;5130019;27;20308;-83
2022/07/22 11:03:25;;;;;;;6.63;4.82;;;37.80;55.20;;;;;;5134046;27;20194;-83
2022/07/22 11:05:53;;;;;;;5.72;4.85;;;37.60;54.90;;;;;;5131135;27;20213;-82
2022/07/22 11:08:22;;;;;;;6.18;4.88;;;37.20;55.80;;;;;;5135088;27;20194;-81
2022/07/22 11:10:51;;;;;;;7.32;5.43;;;37.40;55.20;;;;;;5125913;27;20193;-80
2022/07/22 11:13:33;;;;;;;6.35;5.40;;;37.10;56.80;;;;;;5126543;27;20194;-81
2022/07/22 11:16:17;;;;;;;5.95;4.95;;;36.80;55.90;;;;;;5115831;28;20202;-80
2022/07/22 11:18:52;;;;;;;6.65;5.07;;;35.90;57.70;;;;;;5126569;27;20237;-82
2022/07/22 11:21:28;;;;;;;6.18;5.53;;;36.20;58.30;;;;;;5130292;27;20265;-83
2022/07/22 11:24:01;;;;;;;7.13;5.70;;;35.90;57.60;;;;;;5131771;27;20196;-81
2022/07/22 11:26:36;;;;;;;8.63;5.47;;;35.80;58.20;;;;;;5132496;27;20554;-82
2022/07/22 11:29:04;;;;;;;7.32;4.88;;;36.60;57.10;;;;;;5118812;27;20190;-80
2022/07/22 11:31:35;;;;;;;6.07;5.28;;;36.10;58.80;;;;;;5126088;27;20213;-81
2022/07/22 11:34:08;;;;;;;6.63;5.35;;;35.80;58.90;;;;;;5121506;27;20202;-83
2022/07/22 11:36:39;;;;;;;6.78;6.00;;;35.80;59.60;;;;;;5126606;27;20225;-81
2022/07/22 11:39:09;;;;;;;7.43;5.88;;;35.20;58.30;;;;;;5128632;27;20657;-78
2022/07/22 11:41:38;;;;;;;7.32;5.38;;;34.50;58.60;;;;;;5138085;27;20231;-81
2022/07/22 11:44:09;;;;;;;6.50;5.30;;;33.90;59.80;;;;;;5142039;27;20219;-80
2022/07/22 11:46:41;;;;;;;5.57;5.07;;;33.70;60.30;;;;;;5135973;27;20217;-81
2022/07/22 11:49:10;;;;;;;6.07;5.47;;;34.00;61.50;;;;;;5138927;27;20273;-82
2022/07/22 11:51:39;;;;;;;6.78;5.15;;;34.00;59.90;;;;;;5141657;27;20229;-79
2022/07/22 11:54:07;;;;;;;6.35;5.40;;;33.30;59.70;;;;;;5135789;27;20254;-81
2022/07/22 11:56:37;;;;;;;6.72;5.60;;;33.50;60.60;;;;;;5126295;27;20214;-78
2022/07/22 11:59:06;;;;;;;6.30;5.30;;;33.30;62.30;;;;;;5116316;28;20222;-77
2022/07/22 12:01:36;;;;;;;6.65;5.50;;;32.90;61.30;;;;;;5123975;27;20208;-79
2022/07/22 12:04:10;;;;;;;6.18;5.57;;;32.80;62.00;;;;;;5135596;27;20190;-80
2022/07/22 12:06:42;;;;;;;6.55;5.70;;;33.10;61.80;;;;;;5127011;27;20708;-79
2022/07/22 12:09:15;;;;;;;8.75;5.65;;;33.20;65.00;;;;;;5124468;27;20204;-78
2022/07/22 12:11:50;;;;;;;6.57;5.60;;;33.30;64.00;;;;;;5119085;27;20268;-82
2022/07/22 12:14:24;;;;;;;6.78;5.50;;;33.50;62.30;;;;;;5125377;27;20299;-80
2022/07/22 12:16:57;;;;;;;6.75;6.03;;;33.50;62.50;;;;;;5120798;27;20210;-78
2022/07/22 12:19:32;;;;;;;6.35;5.50;;;33.30;61.30;;;;;;5128336;27;20217;-79
2022/07/22 12:22:02;;;;;;;7.28;5.50;;;33.50;63.70;;;;;;5132828;27;20292;-78
2022/07/22 12:24:33;;;;;;;6.53;5.20;;;33.30;61.40;;;;;;5134709;27;20246;-77
2022/07/22 12:27:05;;;;;;;6.20;5.40;;;32.80;65.40;;;;;;5123030;27;20197;-79
2022/07/22 12:29:43;;;;;;;6.88;5.80;;;33.00;64.40;;;;;;5124978;27;20285;-81
2022/07/22 12:32:16;;;;;;;6.15;5.55;;;32.90;63.30;;;;;;5119671;27;20222;-80
2022/07/22 12:34:47;;;;;;;6.35;5.75;;;33.00;64.20;;;;;;5118140;27;20202;-78
2022/07/22 12:37:19;;;;;;;8.87;5.80;;;33.00;62.80;;;;;;5120326;27;20233;-79
2022/07/22 12:39:56;;;;;;;6.40;5.38;;;33.00;65.00;;;;;;5125599;28;20232;-79
2022/07/22 12:42:25;;;;;;;7.97;6.18;;;32.90;62.00;;;;;;5124274;28;20232;-82
2022/07/22 12:45:00;;;;;;;6.97;6.00;;;33.10;62.70;;;;;;5114294;28;20259;-80
2022/07/22 12:47:47;;;;;;;6.43;5.80;;;32.70;63.20;;;;;;5119473;28;20206;-81
2022/07/22 12:50:26;;;;;;;7.83;5.93;;;32.80;66.00;;;;;;5128873;28;20240;-79